aviador You're here:

PAWG Decoded Metar

WRANGELL in AK, USA
Report Time2017-11-23 19:55:00
UTC Time2017-11-23 20:27:28
Flight Rules vfr VFR
Wind070° at 10 kt
W.Decomp.*RWY 10: 6.4 kt HW 7.7 kt LCW
W.Rank070° ranks 17
Current wind is above 070° avg. (7.3)
Visibility9999 m
Phenomena:N/A
Clouds:Few 005 Hf
Overcast 030 Hf
Ceiling3,000 ft
Temp02°C (ISA -13)
Dew Point02°C (100% RH)
AAT-3.3°C
QNH996 hPa
Density Alt-856 ft
Elevation36 ft
Report Wrong Elevation
Raw Report
PAWG 231955Z 07010KT 10SM FEW005 OVC030 02/02 A2942=

Extra information for PAWG:More info

Metar Taf Metar & Taf Last 4 Metars F.Rules Stats Wind Profile Meteogram Temp Stats Airport Information Weather charts Add Link Nearby VenuesMetar ALERT Operation Metar Decoded Social comments

AIRNAV info for PAWG